.
WxDataArchive / Data Records for 2011-08-11
2011-08-10 August 2011 2011-08-12

Data Records for Thursday, 11 August 2011

Time	Temp	Chill	HIndex	Humid	Dewpt	 Wind 	HiWind	WindDir	Rain 	Barom 
-----	----	-----	------	-----	-----	------	------	-------	-----	----- 
00:00	57.6	57.6	57.6	73	49.0	0	0	---	0.00	29.900 
00:05	57.3	57.3	57.3	74	49.1	0	0	---	0.00	29.900 
00:10	57.0	57.0	57.0	75	49.2	0	0	---	0.00	29.900 
00:15	56.9	56.9	56.9	76	49.4	0	0	---	0.00	29.898 
00:20	56.7	56.7	56.7	77	49.6	0	0	---	0.00	29.898 
00:25	56.6	56.6	56.6	77	49.5	0	0	---	0.00	29.898 
00:30	56.5	56.5	56.5	77	49.4	0	0	---	0.00	29.898 
00:35	56.3	56.3	56.3	78	49.5	0	0	---	0.00	29.898 
00:40	56.2	56.2	56.2	79	49.8	0	0	---	0.00	29.898 
00:45	56.2	56.2	56.2	80	50.1	0	0	---	0.00	29.901 
00:50	56.2	56.2	56.2	79	49.8	0	0	---	0.00	29.901 
00:55	56.3	56.3	56.3	80	50.2	0	0	---	0.00	29.901 
01:00	56.3	56.3	56.3	80	50.2	0	0	---	0.00	29.903 
01:05	56.2	56.2	56.2	80	50.1	0	0	---	0.00	29.903 
01:10	56.0	56.0	56.0	81	50.3	0	0	---	0.00	29.903 
01:15	56.0	56.0	56.0	81	50.3	0	0	---	0.00	29.900 
01:20	55.9	55.9	55.9	81	50.2	0	0	---	0.00	29.900 
01:25	55.7	55.7	55.7	81	50.0	0	0	---	0.00	29.900 
01:30	55.4	55.4	55.4	81	49.7	0	0	---	0.00	29.898 
01:35	55.3	55.3	55.3	81	49.6	0	0	---	0.00	29.898 
01:40	55.1	55.1	55.1	81	49.4	0	0	---	0.00	29.898 
01:45	55.0	55.0	55.0	82	49.6	0	0	---	0.00	29.900 
01:50	54.7	54.7	54.7	82	49.3	0	0	---	0.00	29.900 
01:55	54.5	54.5	54.5	83	49.4	0	0	---	0.00	29.900 
02:00	54.4	54.4	54.4	83	49.3	0	0	---	0.00	29.901 
02:05	54.2	54.2	54.2	84	49.5	0	0	---	0.00	29.901 
02:10	54.1	54.1	54.1	84	49.4	0	0	---	0.00	29.901 
02:15	53.9	53.9	53.9	84	49.2	0	0	---	0.00	29.899 
02:20	53.9	53.9	53.9	85	49.5	0	0	---	0.00	29.899 
02:25	53.8	53.8	53.8	85	49.4	0	0	---	0.00	29.899 
02:30	53.8	53.8	53.8	85	49.4	0	0	---	0.00	29.901 
02:35	53.6	53.6	53.6	86	49.5	0	0	---	0.00	29.901 
02:40	53.6	53.6	53.6	86	49.5	0	0	---	0.00	29.901 
02:45	53.6	53.6	53.6	87	49.8	0	0	---	0.00	29.901 
02:50	53.6	53.6	53.6	87	49.8	0	0	---	0.00	29.901 
02:55	53.6	53.6	53.6	87	49.8	0	0	---	0.00	29.901 
03:00	53.6	53.6	53.6	87	49.8	0	0	---	0.00	29.901 
03:05	53.8	53.8	53.8	87	50.0	0	0	---	0.00	29.901 
03:10	53.8	53.8	53.8	87	50.0	0	0	---	0.00	29.901 
03:15	53.8	53.8	53.8	87	50.0	0	0	---	0.00	29.901 
03:20	53.8	53.8	53.8	88	50.3	0	0	---	0.00	29.901 
03:25	53.8	53.8	53.8	87	50.0	0	0	---	0.00	29.901 
03:30	53.8	53.8	53.8	87	50.0	0	0	---	0.00	29.903 
03:35	53.6	53.6	53.6	87	49.8	0	0	---	0.00	29.903 
03:40	53.6	53.6	53.6	87	49.8	0	0	---	0.00	29.903 
03:45	53.5	53.5	53.5	88	50.0	0	0	---	0.00	29.909 
03:50	53.5	53.5	53.5	88	50.0	0	0	---	0.00	29.909 
03:55	53.3	53.3	53.3	88	49.8	0	0	---	0.00	29.909 
04:00	53.3	53.3	53.3	88	49.8	0	0	---	0.00	29.906 
04:05	53.2	53.2	53.2	88	49.7	0	0	---	0.00	29.906 
04:10	53.2	53.2	53.2	88	49.7	0	0	---	0.00	29.906 
04:15	53.2	53.2	53.2	89	50.0	0	0	---	0.00	29.914 
04:20	53.3	53.3	53.3	89	50.1	0	0	---	0.00	29.914 
04:25	53.3	53.3	53.3	88	49.8	0	0	---	0.00	29.914 
04:30	53.3	53.3	53.3	88	49.8	0	0	---	0.00	29.916 
04:35	53.2	53.2	53.2	88	49.7	0	0	---	0.00	29.916 
04:40	53.2	53.2	53.2	88	49.7	0	0	---	0.00	29.916 
04:45	53.2	53.2	53.2	89	50.0	0	0	---	0.00	29.918 
04:50	53.1	53.1	53.1	89	49.9	0	0	---	0.00	29.918 
04:55	53.1	53.1	53.1	89	49.9	0	0	---	0.00	29.918 
05:00	52.9	52.9	52.9	89	49.7	0	0	---	0.00	29.918 
05:05	52.9	52.9	52.9	89	49.7	0	0	---	0.00	29.918 
05:10	52.8	52.8	52.8	89	49.6	0	0	---	0.00	29.918 
05:15	52.8	52.8	52.8	89	49.6	0	0	---	0.00	29.919 
05:20	52.6	52.6	52.6	89	49.4	0	0	---	0.00	29.919 
05:25	52.6	52.6	52.6	90	49.7	0	0	---	0.00	29.919 
05:30	52.5	52.5	52.5	90	49.7	0	0	---	0.00	29.921 
05:35	52.5	52.5	52.5	90	49.7	0	0	---	0.00	29.921 
05:40	52.6	52.6	52.6	91	50.0	0	0	---	0.00	29.921 
05:45	52.6	52.6	52.6	91	50.0	0	0	---	0.00	29.925 
05:50	52.6	52.6	52.6	91	50.0	0	0	---	0.00	29.925 
05:55	52.6	52.6	52.6	91	50.0	0	0	---	0.00	29.925 
06:00	52.8	52.8	52.8	91	50.2	0	0	---	0.00	29.930 
06:05	52.8	52.8	52.8	91	50.2	0	0	---	0.00	29.930 
06:10	52.8	52.8	52.8	91	50.2	0	0	---	0.00	29.930 
06:15	52.8	52.8	52.8	91	50.2	0	0	---	0.00	29.936 
06:20	52.8	52.8	52.8	91	50.2	0	0	---	0.00	29.936 
06:25	52.8	52.8	52.8	91	50.2	0	0	---	0.00	29.936 
06:30	52.8	52.8	52.8	91	50.2	0	0	---	0.00	29.936 
06:35	52.8	52.8	52.8	91	50.2	0	0	---	0.00	29.936 
06:40	52.8	52.8	52.8	91	50.2	0	0	---	0.00	29.936 
06:45	52.8	52.8	52.8	91	50.2	0	0	---	0.00	29.937 
06:50	52.8	52.8	52.8	91	50.2	0	0	---	0.00	29.937 
06:55	52.8	52.8	52.8	91	50.2	0	0	---	0.00	29.937 
07:00	52.9	52.9	52.9	91	50.3	0	0	---	0.00	29.942 
07:05	53.1	53.1	53.1	91	50.5	0	0	---	0.00	29.942 
07:10	53.2	53.2	53.2	90	50.3	0	0	---	0.00	29.942 
07:15	53.3	53.3	53.3	90	50.4	0	0	---	0.00	29.946 
07:20	53.5	53.5	53.5	89	50.3	0	0	---	0.00	29.946 
07:25	53.8	53.8	53.8	89	50.6	0	0	---	0.00	29.946 
07:30	54.1	54.1	54.1	88	50.6	0	0	---	0.00	29.950 
07:35	54.2	54.2	54.2	88	50.7	0	0	---	0.00	29.950 
07:40	54.4	54.4	54.4	88	50.9	0	0	---	0.00	29.950 
07:45	54.7	54.7	54.7	88	51.2	0	0	---	0.00	29.953 
07:50	55.1	55.1	55.1	87	51.3	0	0	---	0.00	29.953 
07:55	55.7	55.7	55.7	86	51.6	0	0	---	0.00	29.953 
08:00	56.5	56.5	56.5	85	52.0	0	1	270	0.00	29.953 
08:05	57.3	57.3	57.3	83	52.2	0	1	270	0.00	29.953 
08:10	58.3	58.3	58.3	81	52.5	0	0	---	0.00	29.953 
08:15	59.2	59.2	59.2	77	52.0	0	0	---	0.00	29.954 
08:20	59.9	59.9	59.9	73	51.2	0	0	---	0.00	29.954 
08:25	60.5	60.5	60.5	69	50.3	0	0	---	0.00	29.954 
08:30	61.3	61.3	61.3	69	51.0	0	0	---	0.00	29.961 
08:35	62.0	62.0	62.0	68	51.3	0	0	---	0.00	29.961 
08:40	62.4	62.4	62.4	66	50.9	0	2	270	0.00	29.961 
08:45	63.1	63.1	63.1	64	50.7	1	2	270	0.00	29.963 
08:50	63.7	63.7	63.7	63	50.9	1	2	270	0.00	29.963 
08:55	64.2	64.2	64.2	63	51.3	0	2	270	0.00	29.963 
09:00	64.8	64.8	64.8	58	49.7	1	4	270	0.00	29.962 
09:05	65.2	65.2	65.2	56	49.1	1	3	338	0.00	29.962 
09:10	65.6	65.6	65.6	56	49.5	1	2	292	0.00	29.962 
09:15	66.3	66.3	66.3	56	50.1	1	2	292	0.00	29.965 
09:20	66.8	66.8	66.8	54	49.6	1	3	292	0.00	29.965 
09:25	67.1	67.1	67.1	54	49.9	1	2	315	0.00	29.965 
09:30	67.6	67.6	67.6	54	50.4	1	3	315	0.00	29.967 
09:35	67.9	67.9	67.9	52	49.6	2	5	270	0.00	29.967 
09:40	68.3	68.3	68.3	51	49.5	2	6	270	0.00	29.967 
09:45	68.8	68.8	68.8	52	50.4	1	3	292	0.00	29.965 
09:50	69.1	69.1	69.1	50	49.7	2	4	270	0.00	29.965 
09:55	69.4	69.4	69.4	50	49.9	1	3	270	0.00	29.965 
10:00	69.8	69.8	69.8	51	50.8	1	3	315	0.00	29.963 
10:05	70.4	70.4	70.4	50	50.9	2	4	315	0.00	29.963 
10:10	70.9	70.9	70.9	51	51.9	1	2	270	0.00	29.963 
10:15	71.6	71.6	71.6	50	52.0	1	3	270	0.00	29.965 
10:20	71.6	71.6	71.6	50	52.0	2	3	270	0.00	29.965 
10:25	72.0	72.0	72.0	52	53.4	1	3	270	0.00	29.965 
10:30	73.0	73.0	73.0	50	53.2	0	2	315	0.00	29.966 
10:35	73.5	73.5	73.5	50	53.7	1	3	315	0.00	29.966 
10:40	73.9	73.9	73.9	48	53.0	0	1	45	0.00	29.966 
10:45	74.2	74.2	74.2	48	53.2	0	3	0	0.00	29.967 
10:50	74.4	74.4	74.4	48	53.4	0	3	292	0.00	29.967 
10:55	74.9	74.9	74.9	47	53.3	1	4	292	0.00	29.967 
11:00	74.9	74.9	74.9	46	52.7	1	4	292	0.00	29.973 
11:05	75.6	75.6	77.9	48	54.5	1	4	135	0.00	29.973 
11:10	75.6	75.6	77.8	43	51.5	1	4	270	0.00	29.973 
11:15	75.8	75.8	77.7	40	49.7	1	4	135	0.00	29.977 
11:20	76.3	76.3	78.0	43	52.1	1	4	112	0.00	29.977 
11:25	76.3	76.3	77.9	40	50.2	1	5	112	0.00	29.977 
11:30	76.0	76.0	77.8	40	49.9	1	4	270	0.00	29.979 
11:35	76.8	76.8	78.1	39	49.9	1	4	112	0.00	29.979 
11:40	77.2	77.2	78.3	40	51.0	0	3	112	0.00	29.979 
11:45	76.0	76.0	77.9	41	50.6	1	4	292	0.00	29.988 
11:50	75.3	75.3	77.7	44	51.9	0	1	292	0.00	29.988 
11:55	75.8	75.8	77.7	39	49.1	1	5	90	0.00	29.988 
12:00	76.3	76.3	78.0	41	50.8	1	3	338	0.00	29.988 
12:05	76.5	76.5	78.1	41	51.0	0	2	338	0.00	29.988 
12:10	76.8	76.8	78.2	41	51.3	1	4	292	0.00	29.988 
12:15	76.3	76.3	77.9	39	49.5	0	3	292	0.00	29.991 
12:20	75.6	75.6	77.7	40	49.6	0	2	292	0.00	29.991 
12:25	75.8	75.8	77.8	42	51.1	0	1	292	0.00	29.991 
12:30	75.8	75.8	77.7	40	49.7	0	2	292	0.00	29.991 
12:35	76.7	76.7	78.1	41	51.2	0	2	292	0.00	29.991 
12:40	77.6	77.6	78.5	40	51.3	1	5	112	0.00	29.991 
12:45	78.3	78.3	78.8	39	51.3	1	4	112	0.00	29.991 
12:50	78.8	78.8	78.8	34	48.0	0	2	0	0.00	29.991 
12:55	78.8	78.8	78.9	36	49.6	2	6	112	0.00	29.991 
13:00	79.2	79.2	79.1	36	49.9	1	3	112	0.00	29.992 
13:05	78.5	78.5	78.7	35	48.5	2	5	112	0.00	29.992 
13:10	78.6	78.6	79.0	39	51.5	1	5	112	0.00	29.992 
13:15	78.1	78.1	78.7	38	50.4	1	3	292	0.00	29.993 
13:20	78.3	78.3	78.7	37	49.9	1	4	292	0.00	29.993 
13:25	78.6	78.6	78.8	36	49.4	1	3	90	0.00	29.993 
13:30	78.5	78.5	78.6	33	47.0	2	4	315	0.00	29.994 
13:35	78.5	78.5	78.6	34	47.8	1	3	315	0.00	29.994 
13:40	78.6	78.6	78.7	35	48.6	1	3	0	0.00	29.994 
13:45	79.2	79.2	79.2	37	50.7	1	5	68	0.00	29.986 
13:50	79.4	79.4	79.1	34	48.6	0	2	68	0.00	29.986 
13:55	78.1	78.1	78.6	37	49.7	1	4	270	0.00	29.986 
14:00	77.2	77.2	78.1	36	48.2	0	1	270	0.00	29.992 
14:05	77.7	77.7	78.5	38	50.0	1	4	270	0.00	29.992 
14:10	79.2	79.2	79.1	35	49.2	1	4	90	0.00	29.992 
14:15	79.6	79.6	79.4	37	51.0	2	5	90	0.00	29.986 
14:20	79.6	79.6	79.2	34	48.7	1	4	270	0.00	29.986 
14:25	79.0	79.0	78.9	34	48.2	1	2	270	0.00	29.986 
14:30	77.9	77.9	78.5	37	49.5	0	2	270	0.00	29.980 
14:35	77.9	77.9	78.6	38	50.2	1	3	315	0.00	29.980 
14:40	78.1	78.1	78.5	36	48.9	0	2	315	0.00	29.980 
14:45	77.6	77.6	78.4	38	50.0	0	1	338	0.00	29.979 
14:50	77.4	77.4	78.4	39	50.5	1	3	112	0.00	29.979 
14:55	77.9	77.9	78.3	34	47.2	1	3	112	0.00	29.979 
15:00	78.6	78.6	78.7	34	47.9	0	1	112	0.00	29.978 
15:05	78.8	78.8	78.8	34	48.0	0	1	112	0.00	29.978 
15:10	78.6	78.6	78.9	38	50.8	0	2	112	0.00	29.978 
15:15	79.0	79.0	79.2	38	51.2	1	4	292	0.00	29.974 
15:20	79.2	79.2	79.2	37	50.7	2	4	270	0.00	29.974 
15:25	79.2	79.2	79.2	37	50.7	1	3	292	0.00	29.974 
15:30	79.8	79.8	79.6	38	51.9	1	2	292	0.00	29.970 
15:35	80.3	80.3	79.7	35	50.1	1	2	292	0.00	29.970 
15:40	80.9	80.9	80.1	34	49.9	1	3	292	0.00	29.970 
15:45	81.6	81.6	80.5	34	50.5	0	3	292	0.00	29.964 
15:50	82.0	82.0	80.7	33	50.0	0	1	22	0.00	29.964 
15:55	82.4	82.4	81.1	34	51.2	1	3	292	0.00	29.964 
16:00	81.1	81.1	80.0	32	48.4	2	6	292	0.00	29.962 
16:05	79.6	79.6	79.3	35	49.5	2	5	315	0.00	29.962 
16:10	79.8	79.8	79.5	36	50.4	1	5	315	0.00	29.962 
16:15	79.9	79.9	79.5	35	49.8	1	6	315	0.00	29.964 
16:20	80.1	80.1	79.5	34	49.2	0	3	315	0.00	29.964 
16:25	80.1	80.1	79.5	34	49.2	1	3	315	0.00	29.964 
16:30	79.4	79.4	79.2	35	49.3	1	3	315	0.00	29.964 
16:35	78.6	78.6	78.9	37	50.1	1	3	315	0.00	29.964 
16:40	78.5	78.5	78.9	39	51.5	1	2	315	0.00	29.964 
16:45	78.8	78.8	79.0	37	50.3	1	4	315	0.00	29.964 
16:50	78.6	78.6	78.9	38	50.8	0	3	315	0.00	29.964 
16:55	78.5	78.5	78.9	39	51.5	0	2	315	0.00	29.964 
17:00	77.7	77.7	78.5	39	50.7	0	1	315	0.00	29.965 
17:05	77.4	77.4	78.5	41	51.8	0	0	---	0.00	29.965 
17:10	77.0	77.0	78.3	41	51.5	0	1	315	0.00	29.965 
17:15	76.8	76.8	78.1	40	50.6	0	0	---	0.00	29.965 
17:20	76.8	76.8	78.1	40	50.6	0	1	315	0.00	29.965 
17:25	76.8	76.8	78.1	39	49.9	0	1	315	0.00	29.965 
17:30	77.2	77.2	78.3	40	51.0	0	3	315	0.00	29.964 
17:35	77.4	77.4	78.3	38	49.8	0	3	112	0.00	29.964 
17:40	77.4	77.4	78.4	39	50.5	0	1	112	0.00	29.964 
17:45	77.2	77.2	78.3	40	51.0	0	0	---	0.00	29.964 
17:50	77.0	77.0	78.2	40	50.8	0	0	---	0.00	29.964 
17:55	76.8	76.8	78.1	40	50.6	0	0	---	0.00	29.964 
18:00	76.8	76.8	78.2	41	51.3	0	0	---	0.00	29.963 
18:05	77.2	77.2	78.4	41	51.7	0	2	112	0.00	29.963 
18:10	77.6	77.6	78.5	40	51.3	0	2	112	0.00	29.963 
18:15	77.6	77.6	78.5	40	51.3	0	1	112	0.00	29.962 
18:20	77.4	77.4	78.5	42	52.5	0	0	---	0.00	29.962 
18:25	77.4	77.4	78.6	44	53.8	0	1	112	0.00	29.962 
18:30	77.4	77.4	78.5	41	51.8	1	3	112	0.00	29.962 
18:35	77.6	77.6	78.6	41	52.0	0	4	112	0.00	29.962 
18:40	77.7	77.7	78.6	41	52.1	0	3	112	0.00	29.962 
18:45	77.7	77.7	78.6	41	52.1	0	1	112	0.00	29.960 
18:50	77.6	77.6	78.6	41	52.0	0	1	112	0.00	29.960 
18:55	77.7	77.7	78.6	41	52.1	0	1	112	0.00	29.960 
19:00	77.9	77.9	78.6	39	50.9	0	2	112	0.00	29.949 
19:05	77.9	77.9	78.7	40	51.6	0	2	112	0.00	29.949 
19:10	78.1	78.1	78.6	37	49.7	0	2	112	0.00	29.949 
19:15	78.1	78.1	78.7	38	50.4	0	1	112	0.00	29.945 
19:20	78.1	78.1	78.7	38	50.4	0	2	112	0.00	29.945 
19:25	78.1	78.1	78.7	38	50.4	0	1	112	0.00	29.945 
19:30	77.9	77.9	78.6	39	50.9	0	1	112	0.00	29.946 
19:35	77.9	77.9	78.6	39	50.9	0	2	112	0.00	29.946 
19:40	77.7	77.7	78.6	40	51.4	0	4	112	0.00	29.946 
19:45	77.4	77.4	78.4	39	50.5	0	2	112	0.00	29.947 
19:50	77.2	77.2	78.3	40	51.0	0	1	112	0.00	29.947 
19:55	76.8	76.8	78.2	41	51.3	0	2	112	0.00	29.947 
20:00	76.7	76.7	78.2	43	52.5	0	1	112	0.00	29.947 
20:05	76.3	76.3	78.0	43	52.1	0	1	112	0.00	29.947 
20:10	76.0	76.0	77.9	43	51.9	0	0	---	0.00	29.947 
20:15	75.8	75.8	77.8	42	51.1	0	2	112	0.00	29.945 
20:20	75.8	75.8	77.9	44	52.3	0	0	---	0.00	29.945 
20:25	75.4	75.4	77.7	44	52.0	0	0	---	0.00	29.945 
20:30	75.3	75.3	77.7	44	51.9	0	1	112	0.00	29.948 
20:35	74.9	74.9	74.9	45	52.1	0	0	---	0.00	29.948 
20:40	74.7	74.7	74.7	45	51.9	0	0	---	0.00	29.948 
20:45	74.4	74.4	74.4	46	52.3	0	0	---	0.00	29.956 
20:50	74.0	74.0	74.0	47	52.5	0	0	---	0.00	29.956 
20:55	73.7	73.7	73.7	48	52.8	0	0	---	0.00	29.956 
21:00	73.2	73.2	73.2	48	52.3	0	0	---	0.00	29.953 
21:05	72.7	72.7	72.7	49	52.4	0	0	---	0.00	29.953 
21:10	72.3	72.3	72.3	49	52.1	0	0	---	0.00	29.953 
21:15	71.8	71.8	71.8	51	52.7	0	0	---	0.00	29.954 
21:20	71.3	71.3	71.3	52	52.8	0	0	---	0.00	29.954 
21:25	70.8	70.8	70.8	54	53.3	0	0	---	0.00	29.954 
21:30	70.1	70.1	70.1	54	52.7	0	0	---	0.00	29.957 
21:35	69.6	69.6	69.6	56	53.2	0	0	---	0.00	29.957 
21:40	69.1	69.1	69.1	57	53.2	0	0	---	0.00	29.957 
21:45	68.6	68.6	68.6	59	53.7	0	0	---	0.00	29.963 
21:50	68.3	68.3	68.3	60	53.9	0	0	---	0.00	29.963 
21:55	67.9	67.9	67.9	61	53.9	0	0	---	0.00	29.963 
22:00	67.6	67.6	67.6	60	53.2	0	0	---	0.00	29.969 
22:05	67.3	67.3	67.3	61	53.4	0	0	---	0.00	29.969 
22:10	66.9	66.9	66.9	62	53.4	0	0	---	0.00	29.969 
22:15	66.6	66.6	66.6	62	53.2	0	0	---	0.00	29.970 
22:20	66.4	66.4	66.4	63	53.4	0	0	---	0.00	29.970 
22:25	66.1	66.1	66.1	64	53.6	0	0	---	0.00	29.970 
22:30	66.0	66.0	66.0	65	53.9	0	0	---	0.00	29.971 
22:35	65.6	65.6	65.6	65	53.5	0	0	---	0.00	29.971 
22:40	65.5	65.5	65.5	66	53.8	0	0	---	0.00	29.971 
22:45	65.0	65.0	65.0	66	53.4	0	0	---	0.00	29.973 
22:50	64.8	64.8	64.8	67	53.6	0	0	---	0.00	29.973 
22:55	64.5	64.5	64.5	68	53.7	0	0	---	0.00	29.973 
23:00	64.3	64.3	64.3	69	53.9	0	0	---	0.00	29.977 
23:05	64.0	64.0	64.0	69	53.6	0	0	---	0.00	29.977 
23:10	63.9	63.9	63.9	71	54.3	0	0	---	0.00	29.977 
23:15	63.5	63.5	63.5	72	54.3	0	0	---	0.00	29.982 
23:20	63.2	63.2	63.2	73	54.4	0	0	---	0.00	29.982 
23:25	63.1	63.1	63.1	74	54.7	0	0	---	0.00	29.982 
23:30	62.7	62.7	62.7	74	54.3	0	0	---	0.00	29.986 
23:35	62.6	62.6	62.6	75	54.6	0	0	---	0.00	29.986 
23:40	62.6	62.6	62.6	75	54.6	0	0	---	0.00	29.986 
23:45	62.4	62.4	62.4	75	54.4	0	0	---	0.00	29.988 
23:50	62.3	62.3	62.3	76	54.6	0	0	---	0.00	29.988 
23:55	62.1	62.1	62.1	76	54.4	0	0	---	0.00	29.988 

CoCoRaHS
IN-AL-39
A2 Web Hosting
Creative Commons License
GoDaddy
search engine by freefind advanced

loaded 2018-11-15 06:32:03 • last modified 2010-11-18 10:43:29
Privacy PolicyDisclaimer
• wx.awcolley.com is powered by PmWiki v.2002016 •
• all content (unless otherwise noted) © 2018 A W Colley